Latest Weather Observations for Narrandera Airport

IDN60801

Issued at 10:02 pm EST Thursday 5 May 2016 (issued every 30 minutes, with the page automatically refreshed every 10 minutes)

About weather observations | Map of weather stations | Latest weather observations for NSW | Other Formats
Station Details ID: 074148 Name: NARRANDERA AIRPORT AWS Lat: -34.70 Lon: 146.51 Height: 145.0 m
Data from the previous 72 hours. | See also: Recent months at Narrandera Airport
Date/Time
EST
Temp
°C
App
Temp
°C
Dew
Point
Rel
Hum
%
Delta-T
°C
Wind Press
QNH
hPa
Press
MSL
hPa
Rain
since 9 am
mm
Dir
 
Spd
km/h
Gust
km/h
Spd
kts
Gust
kts
05/10:00pm 11.7 9.5 7.8 77 1.9 ESE 9 9 5 5 1018.5 1018.5 0.0
05/09:30pm 12.6 10.8 8.1 74 2.2 SE 7 7 4 4 1018.6 1018.6 0.0
05/09:00pm 12.4 10.6 7.9 74 2.2 SE 7 9 4 5 1018.4 1018.4 0.0
05/08:30pm 13.1 11.6 8.4 73 2.4 SE 6 7 3 4 1018.4 1018.4 0.0
05/08:00pm 13.0 12.7 8.5 74 2.3 CALM 0 6 0 3 1018.2 1018.2 0.0
05/07:30pm 13.1 12.8 8.6 74 2.3 CALM 0 0 0 0 1018.1 1018.1 0.0
05/07:00pm 14.2 13.9 8.6 69 2.8 CALM 0 6 0 3 1018.0 1018.0 0.0
05/06:30pm 14.7 13.9 8.2 65 3.3 ESE 2 6 1 3 1017.7 1017.7 0.0
05/06:00pm 16.3 14.8 8.5 60 4.0 ENE 6 7 3 4 1017.6 1017.6 0.0
05/05:30pm 18.7 16.9 8.1 50 5.5 NE 7 9 4 5 1017.4 1017.4 0.0
05/05:00pm 20.7 18.8 7.7 43 6.7 N 7 9 4 5 1017.3 1017.3 0.0
05/04:30pm 21.4 19.1 7.3 40 7.3 NNW 9 11 5 6 1017.4 1017.4 0.0
05/04:00pm 21.1 19.0 6.6 39 7.4 N 7 13 4 7 1017.5 1017.5 0.0
05/03:30pm 21.3 18.2 7.2 40 7.3 NNW 13 17 7 9 1017.6 1017.6 0.0
05/03:00pm 21.4 19.4 6.9 39 7.4 NNW 7 17 4 9 1017.7 1017.7 0.0
05/02:30pm 21.1 18.0 7.3 41 7.1 NNW 13 17 7 9 1017.9 1017.9 0.0
05/02:00pm 21.0 17.8 6.9 40 7.2 WNW 13 20 7 11 1018.0 1018.0 0.0
05/01:30pm 20.9 18.1 6.8 40 7.2 WNW 11 19 6 10 1018.3 1018.3 0.0
05/01:00pm 20.7 17.8 6.6 40 7.2 N 11 24 6 13 1018.7 1018.7 0.0
05/12:30pm 20.4 17.5 6.4 40 7.1 N 11 17 6 9 1019.2 1019.3 0.0
05/12:00pm 19.7 17.0 5.4 39 7.0 NNE 9 17 5 9 1019.8 1019.8 0.0
05/11:30am 19.5 15.7 5.6 40 6.9 N 15 20 8 11 1020.3 1020.3 0.0
05/11:00am 19.4 17.0 6.8 44 6.4 N 9 15 5 8 1020.9 1020.9 0.0
05/10:30am 18.8 16.4 6.9 46 6.0 NNE 9 13 5 7 1021.4 1021.4 0.0
05/10:00am 17.5 15.2 7.3 51 5.1 NE 9 13 5 7 1021.6 1021.6 0.0
05/09:30am 16.3 14.3 7.0 54 4.6 ENE 7 9 4 5 1021.7 1021.7 0.0
05/09:00am 14.8 12.8 7.1 60 3.8 E 7 9 4 5 1021.5 1021.5 0.0
05/08:30am 13.2 10.7 6.5 64 3.2 E 9 11 5 6 1021.3 1021.3 0.0
05/08:00am 11.4 9.5 6.7 73 2.2 ESE 6 7 3 4 1021.3 1021.3 0.0
05/07:30am 8.8 6.5 5.9 82 1.3 ESE 7 9 4 5 1021.0 1021.0 0.0
05/07:00am 7.9 5.2 5.4 84 1.1 ESE 9 11 5 6 1020.6 1020.6 0.0
05/06:30am 7.7 4.5 5.2 84 1.1 ESE 11 11 6 6 1020.4 1020.4 0.0
05/06:00am 8.2 5.1 5.5 83 1.2 ESE 11 11 6 6 1020.4 1020.4 0.0
05/05:30am 8.1 5.3 5.0 81 1.4 ESE 9 11 5 6 1020.3 1020.3 0.0
05/05:00am 8.5 6.1 5.3 80 1.4 ESE 7 9 4 5 1020.3 1020.3 0.0
05/04:30am 8.7 6.3 5.4 80 1.5 SE 7 9 4 5 1020.1 1020.1 0.0
05/04:00am 8.9 6.7 5.5 79 1.5 ESE 6 7 3 4 1020.1 1020.1 0.0
05/03:30am 9.1 6.9 5.5 78 1.6 ESE 6 9 3 5 1020.0 1020.0 0.0
05/03:00am 9.5 7.4 5.9 78 1.7 ESE 6 9 3 5 1020.1 1020.1 0.0
05/02:30am 9.3 7.9 5.7 78 1.7 SE 2 7 1 4 1020.3 1020.3 0.0
05/02:00am 9.9 8.5 5.5 74 2.0 E 2 7 1 4 1020.4 1020.4 0.0
05/01:30am 10.4 8.8 6.2 75 2.0 SE 4 7 2 4 1020.4 1020.4 0.0
05/01:00am 10.7 9.9 6.6 76 1.9 CALM 0 7 0 4 1020.6 1020.6 0.0
05/12:30am 10.4 9.6 6.7 78 1.8 CALM 0 0 0 0 1020.6 1020.6 0.0
05/12:00am 10.2 8.1 6.7 79 1.7 NE 7 9 4 5 1020.7 1020.7 0.0
 
Date/Time
EST
Temp
°C
App
Temp
°C
Dew
Point
Rel
Hum
%
Delta-T
°C
Wind Press
QNH
hPa
Press
MSL
hPa
Rain
since 9 am
mm
Dir
 
Spd
km/h
Gust
km/h
Spd
kts
Gust
kts
04/11:30pm 9.0 6.9 6.8 86 1.0 ESE 7 9 4 5 1020.7 1020.7 0.0
04/11:00pm 8.4 6.3 6.7 89 0.8 SE 7 9 4 5 1020.6 1020.6 0.0
04/10:30pm 8.6 7.8 6.7 88 0.9 CALM 0 0 0 0 1020.5 1020.5 0.0
04/10:00pm 8.5 6.6 6.6 88 0.9 SSE 6 6 3 3 1020.5 1020.5 0.0
04/09:30pm 8.9 8.2 6.9 87 0.9 CALM 0 0 0 0 1020.5 1020.5 0.0
04/09:00pm 8.9 7.7 6.5 85 1.1 SSE 2 7 1 4 1020.3 1020.3 0.0
04/08:30pm 9.7 9.0 6.8 82 1.4 CALM 0 0 0 0 1020.1 1020.1 0.0
04/08:00pm 10.3 9.6 6.8 79 1.7 CALM 0 0 0 0 1019.9 1019.9 0.0
04/07:30pm 10.9 10.1 6.6 75 2.0 CALM 0 0 0 0 1019.8 1019.8 0.0
04/07:00pm 11.4 9.4 6.3 71 2.4 SE 6 7 3 4 1019.6 1019.6 0.0
04/06:30pm 13.0 12.3 6.8 66 3.0 CALM 0 0 0 0 1019.1 1019.2 0.0
04/06:00pm 14.2 12.5 6.1 58 3.9 SW 4 7 2 4 1018.7 1018.7 0.0
04/05:30pm 16.3 15.2 5.3 48 5.3 CALM 0 6 0 3 1018.4 1018.4 0.0
04/05:00pm 17.9 15.6 4.8 42 6.3 SW 6 9 3 5 1018.1 1018.1 0.0
04/04:30pm 17.8 14.5 4.4 41 6.4 SW 11 15 6 8 1017.8 1017.8 0.0
04/04:00pm 18.4 15.9 4.6 40 6.6 WNW 7 11 4 6 1017.7 1017.7 0.0
04/03:30pm 18.3 14.9 3.8 38 6.9 WSW 11 17 6 9 1017.5 1017.5 0.0
04/03:00pm 18.6 16.1 4.0 38 6.9 W 6 17 3 9 1017.4 1017.4 0.0
04/02:30pm 18.4 14.8 4.9 41 6.5 W 13 20 7 11 1017.3 1017.3 0.0
04/02:00pm 18.2 15.0 5.1 42 6.4 SW 11 24 6 13 1017.2 1017.2 0.0
04/01:30pm 17.8 13.0 4.7 42 6.3 W 19 26 10 14 1017.5 1017.5 0.0
04/01:00pm 17.3 13.8 5.3 45 5.8 WSW 13 20 7 11 1017.6 1017.6 0.0
04/12:30pm 16.7 12.8 5.3 47 5.5 WSW 15 22 8 12 1018.0 1018.0 0.0
04/12:00pm 16.7 13.8 6.5 51 5.0 SW 11 15 6 8 1018.4 1018.4 0.0
04/11:30am 15.9 12.9 6.1 52 4.8 WSW 11 20 6 11 1018.6 1018.6 0.0
04/11:00am 15.1 12.1 5.9 54 4.4 WSW 11 17 6 9 1018.8 1018.9 0.0
04/10:30am 14.8 12.3 8.1 64 3.4 W 11 17 6 9 1018.8 1018.9 0.0
04/10:00am 14.4 12.2 9.2 71 2.7 SW 11 17 6 9 1018.7 1018.7 0.0
04/09:30am 13.4 10.8 9.3 76 2.1 SW 13 19 7 10 1018.7 1018.7 0.0
04/09:00am 12.8 10.4 10.0 83 1.4 WSW 13 19 7 10 1018.3 1018.3 0.0
04/08:30am 12.3 10.6 10.0 86 1.2 WSW 9 13 5 7 1018.1 1018.1 0.0
04/08:00am 11.3 10.3 10.4 94 0.5 W 6 9 3 5 1017.8 1017.8 0.0
04/07:30am 10.6 9.5 10.1 97 0.3 W 6 7 3 4 1017.1 1017.1 0.0
04/07:00am 10.2 8.8 9.7 97 0.3 WSW 7 9 4 5 1016.6 1016.6 0.0
04/06:30am 10.1 8.7 9.5 96 0.3 W 7 9 4 5 1016.2 1016.2 0.0
04/06:00am 10.2 8.7 9.3 94 0.5 W 7 9 4 5 1015.6 1015.6 0.0
04/05:30am 10.9 9.5 9.7 92 0.6 W 7 7 4 4 1015.0 1015.0 0.0
04/05:00am 11.3 10.0 9.9 91 0.7 W 7 11 4 6 1014.7 1014.7 0.0
04/04:30am 11.5 10.2 10.1 91 0.7 W 7 11 4 6 1014.4 1014.4 0.0
04/04:00am 12.2 11.0 10.4 89 0.9 SW 7 11 4 6 1013.9 1013.9 0.0
04/03:30am 12.7 10.9 10.8 88 1.0 SW 11 15 6 8 1013.5 1013.5 0.0
04/03:00am 13.2 11.5 11.3 88 1.0 SW 11 19 6 10 1013.3 1013.3 0.0
04/02:30am 13.8 11.8 11.5 86 1.2 SW 13 20 7 11 1013.2 1013.2 0.0
04/02:00am 14.4 11.1 11.6 83 1.5 WSW 20 32 11 17 1013.1 1013.1 0.0
04/01:30am 16.0 13.5 11.2 73 2.6 W 15 24 8 13 1012.6 1012.5 0.0
04/01:00am 15.4 14.0 10.8 74 2.5 WNW 9 19 5 10 1012.2 1012.2 0.0
04/12:30am 15.5 14.1 9.4 67 3.2 W 7 9 4 5 1012.0 1012.0 0.0
04/12:00am 14.8 14.6 9.2 69 2.9 CALM 0 0 0 0 1011.6 1011.6 0.0
 
Date/Time
EST
Temp
°C
App
Temp
°C
Dew
Point
Rel
Hum
%
Delta-T
°C
Wind Press
QNH
hPa
Press
MSL
hPa
Rain
since 9 am
mm
Dir
 
Spd
km/h
Gust
km/h
Spd
kts
Gust
kts
03/11:30pm 14.8 14.6 9.2 69 2.9 CALM 0 0 0 0 1011.6 1011.6 0.0
03/11:00pm 15.3 14.8 7.8 61 3.8 CALM 0 0 0 0 1011.6 1011.6 0.0
03/10:30pm 15.0 13.3 8.3 64 3.4 NNW 7 9 4 5 1011.4 1011.4 0.0
03/10:00pm 16.4 14.4 7.3 55 4.6 W 7 11 4 6 1011.4 1011.4 0.0
03/09:30pm 16.0 13.4 7.7 58 4.2 NW 11 13 6 7 1011.2 1011.2 0.0
03/09:00pm 16.6 13.5 7.3 54 4.7 NW 13 15 7 8 1010.9 1010.9 0.0
03/08:30pm 17.0 13.8 6.8 51 5.1 NW 13 17 7 9 1010.6 1010.6 0.0
03/08:00pm 17.2 14.0 7.0 51 5.1 NW 13 17 7 9 1010.3 1010.3 0.0
03/07:30pm 16.9 13.4 7.0 52 5.0 NW 15 17 8 9 1010.0 1010.0 0.0
03/07:00pm 15.9 12.8 7.1 56 4.4 NNW 13 15 7 8 1009.7 1009.7 0.0
03/06:30pm 16.3 13.1 6.7 53 4.8 NW 13 15 7 8 1009.4 1009.4 0.0
03/06:00pm 17.7 13.5 5.6 45 5.9 NW 17 20 9 11 1008.8 1008.8 0.0
03/05:30pm 19.2 14.3 5.3 40 6.8 NW 20 28 11 15 1008.4 1008.4 0.0
03/05:00pm 20.4 13.9 4.8 36 7.7 NW 28 43 15 23 1008.2 1008.2 0.0
03/04:30pm 21.2 13.9 4.3 33 8.3 NW 32 48 17 26 1007.8 1007.8 0.0
03/04:24pm 21.4 14.1 4.5 33 8.3 NW 32 50 17 27 1007.8 1007.8 0.0
03/04:00pm 21.7 13.8 4.3 32 8.6 NW 35 50 19 27 1007.7 1007.7 0.0
03/03:30pm 21.8 13.2 4.4 32 8.6 NNW 39 52 21 28 1007.7 1007.7 0.0
03/03:00pm 21.8 13.6 4.8 33 8.4 NW 37 48 20 26 1008.0 1008.0 0.0
03/02:55pm 21.9 14.1 4.9 33 8.4 NNW 35 54 19 29 1008.0 1008.0 0.0
03/02:30pm 21.8 12.9 5.3 34 8.3 NNW 41 52 22 28 1008.1 1008.1 0.0
03/02:07pm 21.7 13.5 4.7 33 8.4 NW 37 56 20 30 1008.4 1008.4 0.0
03/02:00pm 22.1 13.3 5.5 34 8.4 NW 41 52 22 28 1008.6 1008.6 0.0
03/01:30pm 21.3 12.3 4.8 34 8.1 NW 41 61 22 33 1008.9 1008.9 0.0
03/01:29pm 21.4 12.9 5.3 35 8.0 NW 39 61 21 33 1008.9 1008.9 0.0
03/01:00pm 20.7 13.0 5.5 37 7.6 NNW 35 46 19 25 1009.4 1009.4 0.0
03/12:30pm 21.1 13.7 6.6 39 7.4 NW 35 46 19 25 1010.0 1010.0 0.0
03/12:00pm 20.3 13.2 6.6 41 7.0 NW 33 43 18 23 1010.5 1010.5 0.0
03/11:30am 20.0 13.0 6.7 42 6.8 NW 33 44 18 24 1011.1 1011.1 0.0
03/11:00am 19.1 12.0 6.2 43 6.5 NNW 33 46 18 25 1011.4 1011.4 0.0
03/10:30am 18.3 11.5 7.1 48 5.7 NNW 32 43 17 23 1011.7 1011.7 0.0
03/10:00am 17.9 12.0 7.3 50 5.4 NNW 28 39 15 21 1011.9 1011.9 0.0
03/09:30am 16.9 11.8 7.5 54 4.7 NNW 24 32 13 17 1012.1 1012.1 0.0
03/09:00am 15.6 11.4 7.4 58 4.1 NNW 19 22 10 12 1012.5 1012.4 0.0
03/08:30am 14.7 10.8 7.3 61 3.7 NNW 17 22 9 12 1012.5 1012.4 0.0
03/08:00am 13.2 11.0 7.9 70 2.6 N 9 13 5 7 1012.5 1012.4 0.0
03/07:30am 9.3 7.7 6.4 82 1.4 NNW 4 7 2 4 1012.7 1012.6 0.0
03/07:00am 8.7 7.1 6.5 86 1.0 NNW 4 7 2 4 1012.6 1012.5 0.0
03/06:30am 8.2 7.3 6.2 87 0.9 CALM 0 0 0 0 1012.6 1012.5 0.0
03/06:00am 7.9 7.0 6.0 88 0.9 CALM 0 0 0 0 1012.9 1012.8 0.0
03/05:30am 7.9 6.9 5.7 86 1.0 CALM 0 0 0 0 1012.9 1012.8 0.0
03/05:00am 8.2 7.2 5.7 84 1.1 CALM 0 0 0 0 1012.7 1012.6 0.0
03/04:30am 9.0 7.9 5.2 77 1.7 CALM 0 0 0 0 1012.7 1012.6 0.0
03/04:00am 10.5 9.2 6.1 74 2.1 NNW 2 7 1 4 1012.6 1012.5 0.0
03/03:30am 10.8 9.5 5.8 71 2.3 NW 2 6 1 3 1012.6 1012.5 0.0
03/03:00am 11.8 9.6 6.1 68 2.7 N 7 11 4 6 1012.8 1012.7 0.0
03/02:30am 12.1 9.2 6.4 68 2.7 N 11 17 6 9 1013.1 1013.1 0.0
03/02:00am 12.5 9.9 6.1 65 3.0 NNE 9 15 5 8 1013.5 1013.5 0.0
03/01:30am 12.7 10.2 6.5 66 3.0 N 9 17 5 9 1013.8 1013.8 0.0
03/01:00am 11.2 10.4 6.5 73 2.2 CALM 0 6 0 3 1013.9 1013.9 0.0
03/12:30am 11.1 8.9 6.3 72 2.3 ENE 7 9 4 5 1014.0 1014.0 0.0
03/12:00am 11.7 9.4 7.4 75 2.1 NE 9 11 5 6 1014.6 1014.6 0.0
 
Date/Time
EST
Temp
°C
App
Temp
°C
Dew
Point
Rel
Hum
%
Delta-T
°C
Wind Press
QNH
hPa
Press
MSL
hPa
Rain
since 9 am
mm
Dir
 
Spd
km/h
Gust
km/h
Spd
kts
Gust
kts
02/11:30pm 10.6 9.3 7.7 82 1.4 E 4 9 2 5 1014.9 1014.9 0.0
02/11:00pm 10.9 10.2 6.8 76 2.0 CALM 0 0 0 0 1015.0 1015.0 0.0
02/10:30pm 11.1 9.3 7.2 77 1.9 ENE 6 7 3 4 1014.9 1014.9 0.0

Other Formats:

Comma delimited format used in spreadsheet applications
http://www.bom.gov.au/fwo/IDN60801/IDN60801.95706.axf

JavaScript Object Notation format (JSON) in row-major order
http://www.bom.gov.au/fwo/IDN60801/IDN60801.95706.json